sensor_id;sensor_type;location;lat;lon;timestamp;pressure;altitude;pressure_sealevel;temperature;humidity
47985;BME280;33753;52.912;-7.342;2023-05-02T00:02:02;101028.13;;;8.21;100.00
47985;BME280;33753;52.912;-7.342;2023-05-02T00:04:32;101034.63;;;8.08;100.00
47985;BME280;33753;52.912;-7.342;2023-05-02T00:07:00;101039.63;;;8.03;100.00
47985;BME280;33753;52.912;-7.342;2023-05-02T00:09:29;101037.47;;;7.97;100.00
47985;BME280;33753;52.912;-7.342;2023-05-02T00:11:57;101032.66;;;7.91;100.00
47985;BME280;33753;52.912;-7.342;2023-05-02T00:14:25;101041.81;;;7.78;100.00
47985;BME280;33753;52.912;-7.342;2023-05-02T00:16:53;101038.44;;;7.76;100.00
47985;BME280;33753;52.912;-7.342;2023-05-02T00:19:22;101040.41;;;7.74;100.00
47985;BME280;33753;52.912;-7.342;2023-05-02T00:21:51;101044.09;;;7.73;100.00
47985;BME280;33753;52.912;-7.342;2023-05-02T00:24:19;101039.69;;;7.72;100.00
47985;BME280;33753;52.912;-7.342;2023-05-02T00:26:48;101031.63;;;7.72;100.00
47985;BME280;33753;52.912;-7.342;2023-05-02T00:29:16;101036.72;;;7.75;100.00
47985;BME280;33753;52.912;-7.342;2023-05-02T00:31:44;101039.56;;;7.74;100.00
47985;BME280;33753;52.912;-7.342;2023-05-02T00:34:12;101029.63;;;7.74;100.00
47985;BME280;33753;52.912;-7.342;2023-05-02T00:36:41;101043.81;;;7.76;100.00
47985;BME280;33753;52.912;-7.342;2023-05-02T00:39:10;101043.53;;;7.79;100.00
47985;BME280;33753;52.912;-7.342;2023-05-02T00:41:39;101042.69;;;7.79;100.00
47985;BME280;33753;52.912;-7.342;2023-05-02T00:44:07;101038.00;;;7.81;100.00
47985;BME280;33753;52.912;-7.342;2023-05-02T00:46:35;101053.75;;;7.86;100.00
47985;BME280;33753;52.912;-7.342;2023-05-02T00:49:04;101055.47;;;7.87;100.00
47985;BME280;33753;52.912;-7.342;2023-05-02T00:51:33;101043.69;;;7.88;100.00
47985;BME280;33753;52.912;-7.342;2023-05-02T00:54:01;101048.09;;;7.89;100.00
47985;BME280;33753;52.912;-7.342;2023-05-02T00:56:31;101040.72;;;7.91;100.00
47985;BME280;33753;52.912;-7.342;2023-05-02T00:58:59;101044.13;;;7.93;100.00
47985;BME280;33753;52.912;-7.342;2023-05-02T01:01:30;101053.63;;;7.97;100.00
47985;BME280;33753;52.912;-7.342;2023-05-02T01:04:05;101058.31;;;7.95;100.00
47985;BME280;33753;52.912;-7.342;2023-05-02T01:06:38;101058.31;;;7.95;100.00
47985;BME280;33753;52.912;-7.342;2023-05-02T01:09:15;101056.31;;;7.97;100.00
47985;BME280;33753;52.912;-7.342;2023-05-02T01:11:50;101056.31;;;7.97;100.00
47985;BME280;33753;52.912;-7.342;2023-05-02T01:14:20;101052.19;;;7.93;100.00
47985;BME280;33753;52.912;-7.342;2023-05-02T01:16:50;101058.88;;;7.89;100.00
47985;BME280;33753;52.912;-7.342;2023-05-02T01:19:21;101056.44;;;7.86;100.00
47985;BME280;33753;52.912;-7.342;2023-05-02T01:21:52;101058.13;;;7.77;100.00
47985;BME280;33753;52.912;-7.342;2023-05-02T01:24:23;101054.59;;;7.76;100.00
47985;BME280;33753;52.912;-7.342;2023-05-02T01:26:58;101045.69;;;7.76;100.00
47985;BME280;33753;52.912;-7.342;2023-05-02T01:29:30;101045.53;;;7.77;100.00
47985;BME280;33753;52.912;-7.342;2023-05-02T01:31:59;101049.50;;;7.73;100.00
47985;BME280;33753;52.912;-7.342;2023-05-02T01:34:28;101052.00;;;7.65;100.00
47985;BME280;33753;52.912;-7.342;2023-05-02T01:36:59;101046.63;;;7.65;100.00
47985;BME280;33753;52.912;-7.342;2023-05-02T01:39:30;101055.41;;;7.67;100.00
47985;BME280;33753;52.912;-7.342;2023-05-02T01:42:00;101058.00;;;7.69;100.00
47985;BME280;33753;52.912;-7.342;2023-05-02T01:44:30;101057.13;;;7.68;100.00
47985;BME280;33753;52.912;-7.342;2023-05-02T01:47:01;101063.63;;;7.66;100.00
47985;BME280;33753;52.912;-7.342;2023-05-02T01:49:33;101057.41;;;7.65;100.00
47985;BME280;33753;52.912;-7.342;2023-05-02T01:52:02;101062.78;;;7.65;100.00
47985;BME280;33753;52.912;-7.342;2023-05-02T01:54:32;101058.53;;;7.63;100.00
47985;BME280;33753;52.912;-7.342;2023-05-02T01:57:03;101065.75;;;7.62;100.00
47985;BME280;33753;52.912;-7.342;2023-05-02T01:59:34;101069.28;;;7.63;100.00
47985;BME280;33753;52.912;-7.342;2023-05-02T02:02:03;101067.03;;;7.58;100.00
47985;BME280;33753;52.912;-7.342;2023-05-02T02:04:33;101056.81;;;7.52;100.00
47985;BME280;33753;52.912;-7.342;2023-05-02T02:07:05;101053.53;;;7.48;100.00
47985;BME280;33753;52.912;-7.342;2023-05-02T02:09:33;101053.81;;;7.45;100.00
47985;BME280;33753;52.912;-7.342;2023-05-02T02:12:05;101050.50;;;7.41;100.00
47985;BME280;33753;52.912;-7.342;2023-05-02T02:14:37;101057.06;;;7.39;100.00
47985;BME280;33753;52.912;-7.342;2023-05-02T02:17:10;101056.47;;;7.35;100.00
47985;BME280;33753;52.912;-7.342;2023-05-02T02:19:40;101055.75;;;7.33;100.00
47985;BME280;33753;52.912;-7.342;2023-05-02T02:22:09;101051.34;;;7.32;100.00
47985;BME280;33753;52.912;-7.342;2023-05-02T02:24:40;101054.47;;;7.28;100.00
47985;BME280;33753;52.912;-7.342;2023-05-02T02:27:10;101052.41;;;7.20;100.00
47985;BME280;33753;52.912;-7.342;2023-05-02T02:29:40;101057.66;;;7.12;100.00
47985;BME280;33753;52.912;-7.342;2023-05-02T02:32:08;101056.22;;;7.07;100.00
47985;BME280;33753;52.912;-7.342;2023-05-02T02:34:36;101050.38;;;7.02;100.00
47985;BME280;33753;52.912;-7.342;2023-05-02T02:37:06;101063.31;;;6.87;100.00
47985;BME280;33753;52.912;-7.342;2023-05-02T02:39:38;101059.63;;;6.88;100.00
47985;BME280;33753;52.912;-7.342;2023-05-02T02:42:13;101066.00;;;6.87;100.00
47985;BME280;33753;52.912;-7.342;2023-05-02T02:45:02;101069.53;;;6.88;100.00
47985;BME280;33753;52.912;-7.342;2023-05-02T02:47:35;101058.91;;;6.86;100.00
47985;BME280;33753;52.912;-7.342;2023-05-02T02:50:08;101060.88;;;6.84;100.00
47985;BME280;33753;52.912;-7.342;2023-05-02T02:52:41;101057.34;;;6.84;100.00
47985;BME280;33753;52.912;-7.342;2023-05-02T02:55:15;101057.34;;;6.84;100.00
47985;BME280;33753;52.912;-7.342;2023-05-02T02:57:46;101041.47;;;6.81;100.00
47985;BME280;33753;52.912;-7.342;2023-05-02T03:00:20;101049.69;;;6.79;100.00
47985;BME280;33753;52.912;-7.342;2023-05-02T03:02:49;101045.16;;;6.80;100.00
47985;BME280;33753;52.912;-7.342;2023-05-02T03:05:19;101043.19;;;6.82;100.00
47985;BME280;33753;52.912;-7.342;2023-05-02T03:07:48;101053.06;;;6.81;100.00
47985;BME280;33753;52.912;-7.342;2023-05-02T03:10:20;101043.69;;;6.75;100.00
47985;BME280;33753;52.912;-7.342;2023-05-02T03:12:49;101047.63;;;6.71;100.00
47985;BME280;33753;52.912;-7.342;2023-05-02T03:15:27;101042.25;;;6.71;100.00
47985;BME280;33753;52.912;-7.342;2023-05-02T03:18:01;101044.94;;;6.71;100.00
47985;BME280;33753;52.912;-7.342;2023-05-02T03:20:29;101049.34;;;6.72;100.00
47985;BME280;33753;52.912;-7.342;2023-05-02T03:22:59;101051.75;;;6.75;100.00
47985;BME280;33753;52.912;-7.342;2023-05-02T03:25:27;101051.63;;;6.77;100.00
47985;BME280;33753;52.912;-7.342;2023-05-02T03:27:56;101058.72;;;6.78;100.00
47985;BME280;33753;52.912;-7.342;2023-05-02T03:30:26;101053.06;;;6.81;100.00
47985;BME280;33753;52.912;-7.342;2023-05-02T03:32:54;101054.91;;;6.81;100.00
47985;BME280;33753;52.912;-7.342;2023-05-02T03:35:23;101043.44;;;6.79;100.00
47985;BME280;33753;52.912;-7.342;2023-05-02T03:37:52;101043.00;;;6.73;100.00
47985;BME280;33753;52.912;-7.342;2023-05-02T03:40:21;101036.38;;;6.78;100.00
47985;BME280;33753;52.912;-7.342;2023-05-02T03:42:49;101038.66;;;6.82;100.00
47985;BME280;33753;52.912;-7.342;2023-05-02T03:45:27;101043.75;;;6.85;100.00
47985;BME280;33753;52.912;-7.342;2023-05-02T03:47:56;101049.75;;;6.89;100.00
47985;BME280;33753;52.912;-7.342;2023-05-02T03:50:24;101044.94;;;6.92;100.00
47985;BME280;33753;52.912;-7.342;2023-05-02T03:52:54;101050.03;;;6.96;100.00
47985;BME280;33753;52.912;-7.342;2023-05-02T03:55:36;101058.84;;;6.98;100.00
47985;BME280;33753;52.912;-7.342;2023-05-02T03:58:07;101064.78;;;7.01;100.00
47985;BME280;33753;52.912;-7.342;2023-05-02T04:00:38;101066.22;;;7.05;100.00
47985;BME280;33753;52.912;-7.342;2023-05-02T04:03:07;101066.97;;;7.07;100.00
47985;BME280;33753;52.912;-7.342;2023-05-02T04:05:40;101071.94;;;7.12;100.00
47985;BME280;33753;52.912;-7.342;2023-05-02T04:08:10;101074.50;;;7.14;100.00
47985;BME280;33753;52.912;-7.342;2023-05-02T04:10:39;101080.44;;;7.17;100.00
47985;BME280;33753;52.912;-7.342;2023-05-02T04:13:09;101080.75;;;7.24;100.00
47985;BME280;33753;52.912;-7.342;2023-05-02T04:15:43;101092.97;;;7.28;100.00
47985;BME280;33753;52.912;-7.342;2023-05-02T04:18:15;101081.94;;;7.31;100.00
47985;BME280;33753;52.912;-7.342;2023-05-02T04:20:43;101089.03;;;7.32;100.00
47985;BME280;33753;52.912;-7.342;2023-05-02T04:23:14;101091.56;;;7.34;100.00
47985;BME280;33753;52.912;-7.342;2023-05-02T04:25:49;101087.31;;;7.31;100.00
47985;BME280;33753;52.912;-7.342;2023-05-02T04:28:18;101096.38;;;7.30;100.00
47985;BME280;33753;52.912;-7.342;2023-05-02T04:30:49;101096.13;;;7.33;100.00
47985;BME280;33753;52.912;-7.342;2023-05-02T04:33:20;101092.41;;;7.34;100.00
47985;BME280;33753;52.912;-7.342;2023-05-02T04:35:48;101090.47;;;7.36;100.00
47985;BME280;33753;52.912;-7.342;2023-05-02T04:38:20;101088.75;;;7.35;100.00
47985;BME280;33753;52.912;-7.342;2023-05-02T04:40:49;101085.34;;;7.33;100.00
47985;BME280;33753;52.912;-7.342;2023-05-02T04:43:24;101096.97;;;7.34;100.00
47985;BME280;33753;52.912;-7.342;2023-05-02T04:45:58;101090.75;;;7.33;100.00
47985;BME280;33753;52.912;-7.342;2023-05-02T04:48:30;101083.63;;;7.32;100.00
47985;BME280;33753;52.912;-7.342;2023-05-02T04:50:59;101082.66;;;7.33;100.00
47985;BME280;33753;52.912;-7.342;2023-05-02T04:53:29;101078.47;;;7.19;100.00
47985;BME280;33753;52.912;-7.342;2023-05-02T04:55:58;101070.09;;;7.13;100.00
47985;BME280;33753;52.912;-7.342;2023-05-02T04:58:26;101077.59;;;7.09;100.00
47985;BME280;33753;52.912;-7.342;2023-05-02T05:01:02;101073.31;;;7.06;100.00
47985;BME280;33753;52.912;-7.342;2023-05-02T05:03:31;101078.97;;;7.03;100.00
47985;BME280;33753;52.912;-7.342;2023-05-02T05:06:00;101080.66;;;7.04;100.00
47985;BME280;33753;52.912;-7.342;2023-05-02T05:08:29;101077.00;;;7.05;100.00
47985;BME280;33753;52.912;-7.342;2023-05-02T05:10:58;101076.00;;;7.06;100.00
47985;BME280;33753;52.912;-7.342;2023-05-02T05:13:28;101076.00;;;7.06;100.00
47985;BME280;33753;52.912;-7.342;2023-05-02T05:15:56;101080.66;;;7.04;100.00
47985;BME280;33753;52.912;-7.342;2023-05-02T05:18:29;101070.78;;;7.05;100.00
47985;BME280;33753;52.912;-7.342;2023-05-02T05:20:58;101066.22;;;7.05;100.00
47985;BME280;33753;52.912;-7.342;2023-05-02T05:23:27;101060.72;;;7.07;100.00
47985;BME280;33753;52.912;-7.342;2023-05-02T05:25:55;101050.81;;;7.07;100.00
47985;BME280;33753;52.912;-7.342;2023-05-02T05:28:23;101047.88;;;7.11;100.00
47985;BME280;33753;52.912;-7.342;2023-05-02T05:30:52;101049.31;;;7.15;100.00
47985;BME280;33753;52.912;-7.342;2023-05-02T05:33:21;101056.69;;;7.22;100.00
47985;BME280;33753;52.912;-7.342;2023-05-02T05:35:51;101066.53;;;7.33;100.00
47985;BME280;33753;52.912;-7.342;2023-05-02T05:38:19;101058.59;;;7.41;100.00
47985;BME280;33753;52.912;-7.342;2023-05-02T05:40:48;101055.94;;;7.51;100.00
47985;BME280;33753;52.912;-7.342;2023-05-02T05:43:16;101072.13;;;7.61;100.00
47985;BME280;33753;52.912;-7.342;2023-05-02T05:45:45;101080.94;;;7.73;100.00
47985;BME280;33753;52.912;-7.342;2023-05-02T05:48:13;101076.72;;;7.90;100.00
47985;BME280;33753;52.912;-7.342;2023-05-02T05:50:44;101089.81;;;8.14;100.00
47985;BME280;33753;52.912;-7.342;2023-05-02T05:53:14;101087.56;;;8.48;100.00
47985;BME280;33753;52.912;-7.342;2023-05-02T05:55:44;101096.31;;;8.99;100.00
47985;BME280;33753;52.912;-7.342;2023-05-02T05:58:13;101118.88;;;9.56;100.00
47985;BME280;33753;52.912;-7.342;2023-05-02T06:00:42;101140.72;;;10.18;100.00
47985;BME280;33753;52.912;-7.342;2023-05-02T06:03:11;101157.38;;;10.77;100.00
47985;BME280;33753;52.912;-7.342;2023-05-02T06:05:39;101163.94;;;11.37;100.00
47985;BME280;33753;52.912;-7.342;2023-05-02T06:08:08;101159.97;;;11.84;100.00
47985;BME280;33753;52.912;-7.342;2023-05-02T06:10:37;101146.41;;;12.26;100.00
47985;BME280;33753;52.912;-7.342;2023-05-02T06:13:06;101110.84;;;12.62;100.00
47985;BME280;33753;52.912;-7.342;2023-05-02T06:15:38;101108.28;;;13.10;100.00
47985;BME280;33753;52.912;-7.342;2023-05-02T06:18:07;101087.69;;;13.49;100.00
47985;BME280;33753;52.912;-7.342;2023-05-02T06:20:35;101053.25;;;13.73;100.00
47985;BME280;33753;52.912;-7.342;2023-05-02T06:23:03;101031.41;;;14.12;100.00
47985;BME280;33753;52.912;-7.342;2023-05-02T06:25:31;101016.34;;;14.48;100.00
47985;BME280;33753;52.912;-7.342;2023-05-02T06:28:01;101009.41;;;14.98;100.00
47985;BME280;33753;52.912;-7.342;2023-05-02T06:30:29;101011.94;;;15.45;100.00
47985;BME280;33753;52.912;-7.342;2023-05-02T06:32:58;100982.25;;;15.71;100.00
47985;BME280;33753;52.912;-7.342;2023-05-02T06:35:26;100996.56;;;16.38;100.00
47985;BME280;33753;52.912;-7.342;2023-05-02T06:37:54;101004.81;;;16.95;100.00
47985;BME280;33753;52.912;-7.342;2023-05-02T06:40:22;101004.47;;;17.47;100.00
47985;BME280;33753;52.912;-7.342;2023-05-02T06:42:50;101007.81;;;17.97;100.00
47985;BME280;33753;52.912;-7.342;2023-05-02T06:45:20;100991.84;;;18.41;100.00
47985;BME280;33753;52.912;-7.342;2023-05-02T06:47:48;100983.00;;;18.72;100.00
47985;BME280;33753;52.912;-7.342;2023-05-02T06:50:18;100990.94;;;19.21;100.00
47985;BME280;33753;52.912;-7.342;2023-05-02T06:52:46;100977.69;;;19.56;100.00
47985;BME280;33753;52.912;-7.342;2023-05-02T06:55:14;100977.59;;;19.76;100.00
47985;BME280;33753;52.912;-7.342;2023-05-02T06:57:42;100972.28;;;20.13;100.00
47985;BME280;33753;52.912;-7.342;2023-05-02T07:00:11;100980.06;;;20.48;100.00
47985;BME280;33753;52.912;-7.342;2023-05-02T07:02:41;100979.28;;;20.66;100.00
47985;BME280;33753;52.912;-7.342;2023-05-02T07:05:09;100968.88;;;20.94;100.00
47985;BME280;33753;52.912;-7.342;2023-05-02T07:07:37;100967.03;;;21.24;100.00
47985;BME280;33753;52.912;-7.342;2023-05-02T07:10:06;100964.03;;;21.63;100.00
47985;BME280;33753;52.912;-7.342;2023-05-02T07:12:34;100979.88;;;22.10;100.00
47985;BME280;33753;52.912;-7.342;2023-05-02T07:15:03;100968.63;;;22.23;100.00
47985;BME280;33753;52.912;-7.342;2023-05-02T07:17:32;100971.34;;;22.54;100.00
47985;BME280;33753;52.912;-7.342;2023-05-02T07:20:01;100975.88;;;22.95;100.00
47985;BME280;33753;52.912;-7.342;2023-05-02T07:22:30;100967.56;;;22.24;100.00
47985;BME280;33753;52.912;-7.342;2023-05-02T07:24:59;100963.44;;;22.81;100.00
47985;BME280;33753;52.912;-7.342;2023-05-02T07:27:28;100967.19;;;23.39;100.00
47985;BME280;33753;52.912;-7.342;2023-05-02T07:29:56;100962.44;;;23.23;100.00
47985;BME280;33753;52.912;-7.342;2023-05-02T07:32:24;100970.34;;;23.07;100.00
47985;BME280;33753;52.912;-7.342;2023-05-02T07:34:53;100971.63;;;23.69;100.00
47985;BME280;33753;52.912;-7.342;2023-05-02T07:37:23;100972.00;;;24.02;100.00
47985;BME280;33753;52.912;-7.342;2023-05-02T07:39:51;100976.53;;;24.08;100.00
47985;BME280;33753;52.912;-7.342;2023-05-02T07:42:20;100978.38;;;23.33;100.00
47985;BME280;33753;52.912;-7.342;2023-05-02T07:44:48;100980.47;;;22.78;100.00
47985;BME280;33753;52.912;-7.342;2023-05-02T07:47:16;100985.63;;;22.20;100.00
47985;BME280;33753;52.912;-7.342;2023-05-02T07:49:44;100976.56;;;21.59;100.00
47985;BME280;33753;52.912;-7.342;2023-05-02T07:52:12;100983.25;;;21.51;100.00
47985;BME280;33753;52.912;-7.342;2023-05-02T07:54:42;100985.16;;;21.32;100.00
47985;BME280;33753;52.912;-7.342;2023-05-02T07:57:10;100986.28;;;21.62;100.00
47985;BME280;33753;52.912;-7.342;2023-05-02T07:59:39;100997.63;;;22.14;100.00
47985;BME280;33753;52.912;-7.342;2023-05-02T08:02:07;101004.81;;;22.81;100.00
47985;BME280;33753;52.912;-7.342;2023-05-02T08:04:35;100996.72;;;23.39;100.00
47985;BME280;33753;52.912;-7.342;2023-05-02T08:07:03;100989.06;;;23.98;100.00
47985;BME280;33753;52.912;-7.342;2023-05-02T08:09:31;100993.59;;;24.05;100.00
47985;BME280;33753;52.912;-7.342;2023-05-02T08:12:01;100986.59;;;24.14;100.00
47985;BME280;33753;52.912;-7.342;2023-05-02T08:14:29;100995.31;;;24.40;100.00
47985;BME280;33753;52.912;-7.342;2023-05-02T08:16:57;100992.94;;;24.99;100.00
47985;BME280;33753;52.912;-7.342;2023-05-02T08:19:25;100993.94;;;24.93;100.00
47985;BME280;33753;52.912;-7.342;2023-05-02T08:21:53;100994.75;;;24.72;100.00
47985;BME280;33753;52.912;-7.342;2023-05-02T08:24:21;100990.44;;;24.30;100.00
47985;BME280;33753;52.912;-7.342;2023-05-02T08:26:50;101002.94;;;23.87;100.00
47985;BME280;33753;52.912;-7.342;2023-05-02T08:29:19;101005.00;;;23.39;100.00
47985;BME280;33753;52.912;-7.342;2023-05-02T08:31:48;100998.06;;;22.89;100.00
47985;BME280;33753;52.912;-7.342;2023-05-02T08:34:16;100995.41;;;22.35;100.00
47985;BME280;33753;52.912;-7.342;2023-05-02T08:36:44;100997.38;;;22.82;100.00
47985;BME280;33753;52.912;-7.342;2023-05-02T08:39:13;100994.81;;;23.27;100.00
47985;BME280;33753;52.912;-7.342;2023-05-02T08:41:42;100992.59;;;23.53;100.00
47985;BME280;33753;52.912;-7.342;2023-05-02T08:44:12;100981.19;;;23.90;100.00
47985;BME280;33753;52.912;-7.342;2023-05-02T08:46:41;100975.81;;;24.29;100.00
47985;BME280;33753;52.912;-7.342;2023-05-02T08:49:10;100980.22;;;24.30;100.00
47985;BME280;33753;52.912;-7.342;2023-05-02T08:51:39;100974.28;;;24.73;100.00
47985;BME280;33753;52.912;-7.342;2023-05-02T08:54:09;100978.72;;;24.57;100.00
47985;BME280;33753;52.912;-7.342;2023-05-02T08:56:42;100977.13;;;24.27;100.00
47985;BME280;33753;52.912;-7.342;2023-05-02T08:59:18;100978.06;;;24.32;100.00
47985;BME280;33753;52.912;-7.342;2023-05-02T09:01:48;100977.53;;;24.19;100.00
47985;BME280;33753;52.912;-7.342;2023-05-02T09:04:16;100974.63;;;24.59;100.00
47985;BME280;33753;52.912;-7.342;2023-05-02T09:06:45;100978.50;;;24.97;100.00
47985;BME280;33753;52.912;-7.342;2023-05-02T09:09:13;100972.28;;;24.85;100.00
47985;BME280;33753;52.912;-7.342;2023-05-02T09:11:45;100981.66;;;24.84;100.00
47985;BME280;33753;52.912;-7.342;2023-05-02T09:14:14;100979.41;;;24.81;100.00
47985;BME280;33753;52.912;-7.342;2023-05-02T09:16:42;100983.25;;;25.63;100.00
47985;BME280;33753;52.912;-7.342;2023-05-02T09:19:12;100989.63;;;25.19;100.00
47985;BME280;33753;52.912;-7.342;2023-05-02T09:21:50;100984.47;;;25.28;100.00
47985;BME280;33753;52.912;-7.342;2023-05-02T09:24:20;100986.94;;;25.47;100.00
47985;BME280;33753;52.912;-7.342;2023-05-02T09:26:58;100983.34;;;25.07;100.00
47985;BME280;33753;52.912;-7.342;2023-05-02T09:29:26;100994.38;;;25.24;100.00
47985;BME280;33753;52.912;-7.342;2023-05-02T09:31:56;100987.31;;;25.33;100.00
47985;BME280;33753;52.912;-7.342;2023-05-02T09:34:26;100985.91;;;25.31;100.00
47985;BME280;33753;52.912;-7.342;2023-05-02T09:36:54;100992.81;;;25.11;100.00
47985;BME280;33753;52.912;-7.342;2023-05-02T09:39:24;100999.16;;;24.90;100.00
47985;BME280;33753;52.912;-7.342;2023-05-02T09:41:52;101007.28;;;24.96;100.00
47985;BME280;33753;52.912;-7.342;2023-05-02T09:44:21;101018.97;;;24.81;100.00
47985;BME280;33753;52.912;-7.342;2023-05-02T09:46:51;101016.09;;;24.93;100.00
47985;BME280;33753;52.912;-7.342;2023-05-02T09:49:24;101007.22;;;24.91;100.00
47985;BME280;33753;52.912;-7.342;2023-05-02T09:52:10;101008.31;;;25.29;100.00
47985;BME280;33753;52.912;-7.342;2023-05-02T09:54:39;101021.63;;;24.93;100.00
47985;BME280;33753;52.912;-7.342;2023-05-02T09:57:07;101030.38;;;24.68;100.00
47985;BME280;33753;52.912;-7.342;2023-05-02T09:59:37;101032.72;;;24.59;100.00
47985;BME280;33753;52.912;-7.342;2023-05-02T10:02:07;101039.50;;;24.06;100.00
47985;BME280;33753;52.912;-7.342;2023-05-02T10:04:37;101035.31;;;23.62;100.00
47985;BME280;33753;52.912;-7.342;2023-05-02T10:07:06;101035.56;;;23.49;100.00
47985;BME280;33753;52.912;-7.342;2023-05-02T10:09:38;101039.81;;;22.92;100.00
47985;BME280;33753;52.912;-7.342;2023-05-02T10:12:12;101042.91;;;22.49;100.00
47985;BME280;33753;52.912;-7.342;2023-05-02T10:14:42;101050.97;;;22.32;100.00
47985;BME280;33753;52.912;-7.342;2023-05-02T10:17:13;101046.66;;;21.94;100.00
47985;BME280;33753;52.912;-7.342;2023-05-02T10:19:44;101037.81;;;21.54;100.00
47985;BME280;33753;52.912;-7.342;2023-05-02T10:22:17;101057.81;;;21.24;100.00
47985;BME280;33753;52.912;-7.342;2023-05-02T10:24:48;101049.66;;;21.18;100.00
47985;BME280;33753;52.912;-7.342;2023-05-02T10:27:16;101053.94;;;21.14;100.00
47985;BME280;33753;52.912;-7.342;2023-05-02T10:29:45;101045.66;;;20.95;100.00
47985;BME280;33753;52.912;-7.342;2023-05-02T10:32:15;101051.34;;;20.75;100.00
47985;BME280;33753;52.912;-7.342;2023-05-02T10:34:44;101046.91;;;20.74;100.00
47985;BME280;33753;52.912;-7.342;2023-05-02T10:37:13;101039.09;;;20.39;100.00
47985;BME280;33753;52.912;-7.342;2023-05-02T10:39:42;101045.53;;;20.26;100.00
47985;BME280;33753;52.912;-7.342;2023-05-02T10:42:12;101036.09;;;20.15;100.00
47985;BME280;33753;52.912;-7.342;2023-05-02T10:44:41;101037.03;;;20.02;100.00
47985;BME280;33753;52.912;-7.342;2023-05-02T10:47:19;101041.50;;;19.97;100.00
47985;BME280;33753;52.912;-7.342;2023-05-02T10:49:51;101047.88;;;19.91;100.00
47985;BME280;33753;52.912;-7.342;2023-05-02T10:52:29;101060.03;;;19.49;100.00
47985;BME280;33753;52.912;-7.342;2023-05-02T10:55:17;101065.38;;;19.17;100.00
47985;BME280;33753;52.912;-7.342;2023-05-02T11:00:35;101067.50;;;18.55;100.00
47985;BME280;33753;52.912;-7.342;2023-05-02T11:03:04;101066.66;;;18.41;100.00
47985;BME280;33753;52.912;-7.342;2023-05-02T11:05:32;101069.72;;;17.98;100.00
47985;BME280;33753;52.912;-7.342;2023-05-02T11:08:29;101069.63;;;17.85;100.00
47985;BME280;33753;52.912;-7.342;2023-05-02T11:13:48;101064.47;;;17.55;100.00
47985;BME280;33753;52.912;-7.342;2023-05-02T11:16:17;101072.38;;;17.36;100.00
47985;BME280;33753;52.912;-7.342;2023-05-02T11:19:00;101078.38;;;17.25;100.00
47985;BME280;33753;52.912;-7.342;2023-05-02T11:21:28;101073.00;;;17.38;100.00
47985;BME280;33753;52.912;-7.342;2023-05-02T11:26:45;101070.25;;;17.38;100.00
47985;BME280;33753;52.912;-7.342;2023-05-02T11:29:14;101065.31;;;17.55;100.00
47985;BME280;33753;52.912;-7.342;2023-05-02T11:32:04;101070.94;;;17.47;100.00
47985;BME280;33753;52.912;-7.342;2023-05-02T11:34:41;101076.66;;;17.59;100.00
47985;BME280;33753;52.912;-7.342;2023-05-02T11:37:10;101073.94;;;18.07;100.00
47985;BME280;33753;52.912;-7.342;2023-05-02T11:39:38;101067.69;;;18.27;100.00
47985;BME280;33753;52.912;-7.342;2023-05-02T11:42:06;101065.41;;;18.64;100.00
47985;BME280;33753;52.912;-7.342;2023-05-02T11:47:19;101076.97;;;18.66;100.00
47985;BME280;33753;52.912;-7.342;2023-05-02T11:49:48;101069.00;;;18.78;100.00
47985;BME280;33753;52.912;-7.342;2023-05-02T11:52:16;101064.78;;;18.75;100.00
47985;BME280;33753;52.912;-7.342;2023-05-02T11:54:45;101049.56;;;19.20;100.00
47985;BME280;33753;52.912;-7.342;2023-05-02T11:57:13;101051.25;;;19.21;100.00
47985;BME280;33753;52.912;-7.342;2023-05-02T11:59:48;101051.91;;;19.09;100.00
47985;BME280;33753;52.912;-7.342;2023-05-02T12:02:16;101052.72;;;19.30;100.00
47985;BME280;33753;52.912;-7.342;2023-05-02T12:04:46;101065.59;;;19.23;100.00
47985;BME280;33753;52.912;-7.342;2023-05-02T12:07:14;101066.78;;;19.54;100.00
47985;BME280;33753;52.912;-7.342;2023-05-02T12:09:49;101071.28;;;19.14;100.00
47985;BME280;33753;52.912;-7.342;2023-05-02T12:12:20;101071.53;;;18.99;100.00
47985;BME280;33753;52.912;-7.342;2023-05-02T12:14:49;101076.16;;;18.99;100.00
47985;BME280;33753;52.912;-7.342;2023-05-02T12:17:17;101070.06;;;18.83;100.00
47985;BME280;33753;52.912;-7.342;2023-05-02T12:19:47;101072.81;;;18.97;100.00
47985;BME280;33753;52.912;-7.342;2023-05-02T12:22:15;101077.03;;;19.06;100.00
47985;BME280;33753;52.912;-7.342;2023-05-02T12:24:44;101077.03;;;18.99;100.00
47985;BME280;33753;52.912;-7.342;2023-05-02T12:27:13;101066.91;;;18.87;100.00
47985;BME280;33753;52.912;-7.342;2023-05-02T12:29:42;101074.03;;;19.21;100.00
47985;BME280;33753;52.912;-7.342;2023-05-02T12:32:11;101075.53;;;18.83;100.00
47985;BME280;33753;52.912;-7.342;2023-05-02T12:34:40;101079.09;;;18.77;100.00
47985;BME280;33753;52.912;-7.342;2023-05-02T12:37:09;101077.03;;;18.99;100.00
47985;BME280;33753;52.912;-7.342;2023-05-02T12:39:40;101070.06;;;19.04;100.00
47985;BME280;33753;52.912;-7.342;2023-05-02T12:42:09;101065.41;;;18.64;100.00
47985;BME280;33753;52.912;-7.342;2023-05-02T12:44:38;101067.75;;;18.94;100.00
47985;BME280;33753;52.912;-7.342;2023-05-02T12:47:07;101078.50;;;18.89;100.00
47985;BME280;33753;52.912;-7.342;2023-05-02T12:49:47;101069.22;;;18.56;100.00
47985;BME280;33753;52.912;-7.342;2023-05-02T12:52:16;101074.88;;;18.61;100.00
47985;BME280;33753;52.912;-7.342;2023-05-02T12:54:44;101067.75;;;18.80;100.00
47985;BME280;33753;52.912;-7.342;2023-05-02T12:57:22;101063.53;;;18.98;100.00
47985;BME280;33753;52.912;-7.342;2023-05-02T12:59:51;101063.75;;;18.90;100.00
47985;BME280;33753;52.912;-7.342;2023-05-02T13:02:20;101067.75;;;18.87;100.00